x

Fairweather Ground 105nm West Of Juno, Ak (46083) Wave Buoy

7:50am - Fri 24th Feb 2017 All times are AKST. -9 hours from GMT.

  • Sig Wave height 6.6ft
  • Swell Direction
  • Peak Period 13s
  • Average Period 7s
  • Wind
    16mph, 20mph gusts
  • Sea Temp 42°f
  • Air Temp 38°f
  • Sea Pressure 1029.4mb
  • Fairweather Ground 105nm West  Of Juno, Ak
  • Fairweather Ground 105nm West  Of Juno, Ak

More Historic Weather Station data

Upgrade to MSW Pro to gain access to the past 30 days of data for over 8000 Wavebouys and Weather Stations around the globe.

Join Pro

Comparision Forecast

View Surf forecast
   
Fri 02/24 7:50am 6.5ft 13s 7s 16 20 mph 1029.4mb 42f 38f
6:50am 6.5ft 15s 8s 13 16 mph 1029.7mb 43f 38f
5:50am 6.5ft 14s 8s 13 16 mph 1029.5mb 42f 38f
4:50am 6ft 14s 8s 9 13 mph 1029.3mb 42f 38f
3:50am 6.5ft 14s 8s 13 16 mph 1029.4mb 42f 39f
2:50am 6.5ft 14s 9s 13 18 mph 1029.8mb 42f 40f
1:50am 6.5ft 14s 8s 9 11 mph 1030.2mb 42f 39f
12:50am 6ft 14s 9s 9 11 mph 1030.3mb 42f 39f
Thu 02/23 11:50pm 7ft 11s 8s 9 11 mph 1030.8mb 42f 39f
10:50pm 7ft 11s 8s 9 11 mph 1030.7mb 42f 39f
9:50pm 7ft 14s 9s 11 13 mph 1030.8mb 42f 39f
8:50pm 6ft 9s 8s 7 11 mph 1031mb 42f 39f
7:50pm 7ft 10s 9s 9 11 mph 1031mb 42f 39f
6:50pm 8ft 15s 9s 9 11 mph 1031.3mb 42f 39f
5:50pm 7ft 10s 9s 9 13 mph 1031.4mb 42f 38f
4:50pm 7ft 14s 9s 11 13 mph 1031.7mb 42f 39f
3:50pm 7ft 11s 9s 11 13 mph 1031.7mb 42f 39f
2:50pm 8ft 10s 9s 9 13 mph 1031.4mb 42f 38f
1:50pm 7ft 11s 9s 9 11 mph 1031.5mb 42f 38f
12:50pm 7.5ft 10s 9s 9 11 mph 1031.7mb 42f 38f
11:50am 7ft 11s 9s 9 11 mph 1031.6mb 42f 38f
10:50am 7.5ft 11s 9s 9 11 mph 1031.1mb 42f 37f
9:50am 7ft 11s 9s 7 9 mph 1031mb 42f 37f
8:50am 7ft 11s 8s 13 16 mph 1030.7mb 42f 37f
7:50am 6.5ft 11s 9s 11 13 mph 1030.3mb 42f 37f
6:50am 6.5ft 11s 8s 11 13 mph 1029.3mb 42f 37f
5:50am 6ft 11s 8s 11 16 mph 1029.6mb 42f 37f
4:50am 6ft 12s 9s 9 11 mph 1029.4mb 42f 37f
3:50am 4.5ft 16s 9s 7 9 mph 1030.1mb 42f 35f
2:50am 4.5ft 16s 9s 2
mph
1029.5mb 42f 36f
1:50am 3.5ft 13s 8s 4 7 mph 1028.5mb 42f 36f
12:50am 3.5ft 17s 8s  -  2 mph 1028.3mb 42f 37f
Wed 02/22 11:50pm 3ft 16s 7s 4
mph
1027.4mb 42f 36f
10:50pm 3ft 17s 7s 9
mph
1026.5mb 42f 35f
9:50pm 3.5ft 8s 7s 4 7 mph 1027.1mb 42f 35f
8:50pm 3.5ft 7s 7s 2 4 mph 1027.1mb 42f 35f
7:50pm 3.5ft 7s 7s 4 7 mph 1026.6mb 42f 34f
6:50pm 3.5ft 7s 7s 7 9 mph 1025.6mb 42f 35f
5:50pm 3.5ft 8s 6s 7 9 mph 1025.6mb 42f 34f
4:50pm 3.5ft 8s 6s  -  mph 1025.8mb 42f 34f
3:50pm 3.5ft 8s 6s 2 4 mph 1025.6mb 42f 34f
2:50pm 3.5ft 8s 7s  -  4 mph 1025.9mb 42f 34f
1:50pm 4ft 8s 6s 2
mph
1025.8mb 42f 36f
12:50pm 3.5ft 9s 6s  -  mph 1025.8mb 42f 36f
11:50am 4ft 8s 6s 2 9 mph 1025.9mb 42f 37f
10:50am 3.5ft 8s 6s 2 4 mph 1025.9mb 42f 37f
9:50am 4ft 8s 7s  -  2 mph 1025.7mb 42f 36f
8:50am 4ft 9s 6s 4 7 mph 1025.6mb 42f 36f
7:50am 4.5ft 8s 6s 4 7 mph 1025.5mb 42f 36f
6:50am 4.5ft 8s 7s 7 9 mph 1025.3mb 42f 36f
5:50am 4.5ft 9s 7s 7 9 mph 1025.4mb 42f 36f
4:50am 4.5ft 9s 7s 4 7 mph 1025.4mb 42f 35f
3:50am 5.5ft 10s 7s 7 9 mph 1025.3mb 42f 34f
1:50am 5.5ft 9s 7s  -  mph 1024.4mb 42f 37f
12:50am 5.5ft 8s 7s 2 4 mph 1023.9mb 42f 37f
Tue 02/21 11:50pm 5.5ft 9s 7s 4 7 mph 1023.1mb 42f 36f
10:50pm 6.5ft 9s 7s 2 7 mph 1022.1mb 42f 36f
9:50pm 5.5ft 9s 7s 4 7 mph 1021.3mb 42f 36f
8:50pm 6ft 9s 7s 7 11 mph 1020.2mb 42f 36f
7:50pm 6ft 8s 7s 9 11 mph 1019.4mb 42f 36f
6:50pm 6ft 8s 7s 7 9 mph 1018.6mb 42f 35f
5:50pm 6ft 9s 6s 2 7 mph 1017.6mb 42f 36f
4:50pm 5.5ft 11s 6s 2 4 mph 1016.9mb 42f 36f
3:50pm 5.5ft 9s 6s 4 7 mph 1016.2mb 42f 36f
2:50pm 6ft 9s 6s 9 11 mph 1015.3mb 42f 36f
1:50pm 4.5ft 10s 6s 11 13 mph 1014.4mb 42f 36f
12:50pm 4.5ft 10s 7s 9 11 mph 1013.6mb 42f 35f
11:50am 5ft 11s 7s 13 16 mph 1012.9mb 42f 33f
10:50am 5ft 10s 7s 4 9 mph 1012.2mb 42f 32f
9:50am 4.5ft 9s 7s 4 7 mph 1011.6mb 42f 32f
8:50am 4.5ft 11s 6s 4 7 mph 1011mb 43f 35f
7:50am 5ft 10s 7s 2 4 mph 1010.8mb 43f 35f
6:50am 5ft 10s 6s 9 13 mph 1010.4mb 43f 35f
5:50am 5ft 10s 6s  -  2 mph 1010.2mb 43f 36f
4:50am 5ft 11s 6s 7 9 mph 1010.2mb 43f 36f
3:50am 5.5ft 11s 6s 9 13 mph 1010mb 43f 36f
2:50am 5.5ft 11s 6s 13 16 mph 1009.9mb 43f 36f
1:50am 5.5ft 10s 6s 16 20 mph 1009.7mb 43f 36f
12:50am 5ft 11s 6s 18 22 mph 1009.3mb 43f 36f
Mon 02/20 11:50pm 5ft 11s 6s 16 18 mph 1009.4mb 43f 33f
10:50pm 5ft 11s 6s 16 25 mph 1008.8mb 43f 36f
9:50pm 5ft 9s 5s 16 20 mph 1008.4mb 43f 36f
8:50pm 5ft 11s 5s 18 20 mph 1008mb 43f 36f
7:50pm 4.5ft 11s 5s 16 20 mph 1007.6mb 43f 36f
6:50pm 5ft 11s 6s 18 22 mph 1007.6mb 43f 36f